KAFW/AFW METAR and TAF weather

Enter ICAO airport designator
Station Type Date Time Source
KAFW METAR 2019/08/25 12:53 UTC NOAA

KAFW 251253Z 00000KT 10SM FEW250 25/22 A2988 RMK AO2 SLP103 T02500222


Station Type Date Time Source
KAFW Decoded METAR 2019/08/25 12:53 UTC NOAA

Station name not available
Aug 25, 2019 - 08:53 AM EDT / 2019.08.25 1253 UTC
Wind: Calm:0
Visibility: 10 mile(s):0
Sky conditions: mostly clear
Temperature: 77.0 F (25.0 C)
Dew Point: 72.0 F (22.2 C)
Relative Humidity: 84%
Pressure (altimeter): 29.88 in. Hg (1011 hPa)
ob: KAFW 251253Z 00000KT 10SM FEW250 25/22 A2988 RMK AO2 SLP103 T02500222
cycle: 13

Station Type Date Time Source
KAFW TAF 2019/08/25 12:33 UTC NOAA

TAF KAFW 251130Z 2512/2612 14007KT P6SM SCT250

Example: see airport list